Time;durP1;ratioP1;P1;durP2;ratioP2;P2;SDS_P1;SDS_P2;PMS_P1;PMS_P2;Temp;Humidity;BMP_temperature;BMP_pressure;BME280_temperature;BME280_humidity;BME280_pressure;Samples;Min_cycle;Max_cycle;Signal;HPM_P1;HPM_P2
2020/12/29 00:00:37;;;;;;;1.83;1.05;;;5.00;99.90;;;;;;6003604;23;20165;-77
2020/12/29 00:12:53;;;;;;;1.40;1.00;;;5.00;99.90;;;;;;6001031;23;20190;-77
2020/12/29 00:16:48;;;;;;;1.70;0.90;;;5.00;99.90;;;;;;5920160;24;20259;-77
2020/12/29 00:20:39;;;;;;;;;;;;;;;;;;;;;
2020/12/29 00:24:48;;;;;;;1.20;0.80;;;5.00;99.90;;;;;;5892789;24;20194;-76
2020/12/29 00:32:54;;;;;;;;;;;;;;;;;;;;;
2020/12/29 00:37:03;;;;;;;;;;;;;;;;;;;;;
2020/12/29 00:40:39;;;;;;;;;;;;;;;;;;;;;
2020/12/29 00:49:00;;;;;;;;;;;;;;;;;;;;;
2020/12/29 00:57:17;;;;;;;1.90;1.35;;;4.90;99.90;;;;;;6040021;23;20617;-78
2020/12/29 01:01:02;;;;;;;1.70;1.10;;;5.00;99.90;;;;;;6063132;23;20167;-78
2020/12/29 01:09:50;;;;;;;2.17;1.05;;;4.90;99.90;;;;;;6037171;23;20169;-77
2020/12/29 01:18:13;;;;;;;1.48;0.90;;;5.00;99.90;;;;;;5974284;24;20301;-77
2020/12/29 01:30:44;;;;;;;1.30;0.82;;;5.20;99.90;;;;;;5976107;24;20258;-77
2020/12/29 01:35:01;;;;;;;;;;;;;;;;;;;;;
2020/12/29 01:47:38;;;;;;;;;;;;;;;;;;;;;
2020/12/29 01:56:19;;;;;;;2.53;1.88;;;5.70;99.90;;;;;;5952259;24;20224;-77
2020/12/29 02:00:36;;;;;;;2.83;1.70;;;5.80;99.90;;;;;;5920344;24;20224;-77
2020/12/29 02:41:25;;;;;;;;;;;;;;;;;;;;;
2020/12/29 03:03:15;;;;;;;;;;;;;;;;;;;;;
2020/12/29 03:15:41;;;;;;;1.40;0.85;;;6.00;99.90;;;;;;5940870;23;20161;-78
2020/12/29 03:20:03;;;;;;;2.15;0.77;;;5.90;99.90;;;;;;5940973;23;20190;-79
2020/12/29 03:23:38;;;;;;;1.52;0.85;;;5.90;99.90;;;;;;5904736;24;20198;-79
2020/12/29 03:27:52;;;;;;;;;;;;;;;;;;;;;
2020/12/29 03:36:18;;;;;;;1.55;0.90;;;5.80;99.90;;;;;;6013780;23;20219;-77
2020/12/29 03:39:58;;;;;;;;;;;;;;;;;;;;;
2020/12/29 03:43:21;;;;;;;2.20;0.88;;;5.80;99.90;;;;;;6063222;23;20203;-77
2020/12/29 03:45:51;;;;;;;1.50;0.82;;;5.80;99.90;;;;;;6017722;23;20227;-77
2020/12/29 03:48:51;;;;;;;1.20;0.80;;;5.80;99.90;;;;;;6064585;23;20557;-77
2020/12/29 03:52:33;;;;;;;3.45;0.70;;;5.90;99.90;;;;;;6056566;23;20208;-77
2020/12/29 03:56:24;;;;;;;1.20;0.80;;;6.00;99.90;;;;;;6064504;23;20200;-77
2020/12/29 04:00:47;;;;;;;;;;;;;;;;;;;;;
2020/12/29 04:05:11;;;;;;;1.67;1.17;;;6.10;99.90;;;;;;6063560;23;20493;-77
2020/12/29 04:08:43;;;;;;;1.67;0.82;;;6.00;99.90;;;;;;6032531;23;20228;-77
2020/12/29 04:12:32;;;;;;;1.90;0.98;;;6.00;99.90;;;;;;6026707;23;20212;-78
2020/12/29 04:16:37;;;;;;;;;;;;;;;;;;;;;
2020/12/29 04:23:39;;;;;;;1.30;1.00;;;6.10;99.90;;;;;;6099636;23;20227;-77
2020/12/29 04:32:00;;;;;;;;;;;;;;;;;;;;;
2020/12/29 04:44:46;;;;;;;;;;;;;;;;;;;;;
2020/12/29 04:53:10;;;;;;;;;;;;;;;;;;;;;
2020/12/29 04:57:10;;;;;;;;;;;;;;;;;;;;;
2020/12/29 05:10:42;;;;;;;;;;;;;;;;;;;;;
2020/12/29 05:27:17;;;;;;;2.85;1.25;;;6.50;99.90;;;;;;5864729;24;20164;-82
2020/12/29 05:30:39;;;;;;;1.60;1.10;;;6.40;99.90;;;;;;5881015;24;20156;-81
2020/12/29 05:34:31;;;;;;;2.13;1.63;;;6.40;99.90;;;;;;5894190;24;20180;-82
2020/12/29 05:50:53;;;;;;;2.78;1.35;;;6.40;99.90;;;;;;5962655;23;20752;-81
2020/12/29 05:54:36;;;;;;;;;;;;;;;;;;;;;
2020/12/29 05:58:11;;;;;;;2.95;1.95;;;6.20;99.90;;;;;;6058406;23;20157;-82
2020/12/29 06:11:45;;;;;;;;;;;;;;;;;;;;;
2020/12/29 06:14:39;;;;;;;3.60;1.55;;;5.60;99.90;;;;;;6053852;23;20156;-83
2020/12/29 06:17:16;;;;;;;2.70;1.50;;;5.50;99.90;;;;;;6066449;23;20257;-83
2020/12/29 06:20:00;;;;;;;2.13;1.52;;;5.40;99.90;;;;;;6065125;23;20168;-83
2020/12/29 06:22:29;;;;;;;2.97;1.65;;;5.30;99.90;;;;;;6064417;23;20172;-83
2020/12/29 06:24:56;;;;;;;2.42;1.85;;;5.30;99.90;;;;;;6065308;23;20602;-83
2020/12/29 06:27:30;;;;;;;3.35;2.22;;;5.20;99.90;;;;;;6064348;23;20188;-83
2020/12/29 06:29:57;;;;;;;2.40;1.90;;;5.10;99.90;;;;;;6065158;23;20505;-83
2020/12/29 06:32:25;;;;;;;3.13;2.28;;;5.00;99.90;;;;;;6065795;23;20178;-83
2020/12/29 06:34:51;;;;;;;2.58;2.25;;;5.00;99.90;;;;;;6066705;23;20148;-83
2020/12/29 06:37:26;;;;;;;3.00;1.70;;;4.90;99.90;;;;;;6064310;23;20203;-83
2020/12/29 06:40:04;;;;;;;2.50;2.20;;;4.90;99.90;;;;;;6066285;23;20174;-83
2020/12/29 06:42:31;;;;;;;2.40;2.20;;;4.90;99.90;;;;;;6066436;23;20507;-82
2020/12/29 06:44:59;;;;;;;2.97;2.45;;;4.90;99.90;;;;;;6069011;23;20156;-83
2020/12/29 06:47:26;;;;;;;2.60;2.40;;;4.90;99.90;;;;;;6064579;23;20180;-83
2020/12/29 06:49:54;;;;;;;3.38;2.80;;;5.00;99.90;;;;;;6064739;23;20499;-83
2020/12/29 06:52:26;;;;;;;4.22;3.30;;;5.00;99.90;;;;;;6065474;23;20165;-83
2020/12/29 06:54:59;;;;;;;3.38;2.92;;;5.00;99.90;;;;;;6064872;23;20149;-83
2020/12/29 06:57:51;;;;;;;3.75;3.42;;;5.10;99.90;;;;;;6065443;23;20518;-83
2020/12/29 07:00:24;;;;;;;6.63;3.63;;;5.10;99.90;;;;;;6065659;23;20164;-83
2020/12/29 07:02:53;;;;;;;3.92;3.25;;;5.20;99.90;;;;;;6066211;23;20204;-84
2020/12/29 07:05:18;;;;;;;4.10;3.05;;;5.20;99.90;;;;;;6064624;23;20180;-84
2020/12/29 07:07:51;;;;;;;5.30;3.30;;;5.30;99.90;;;;;;6065436;23;20188;-84
2020/12/29 07:10:17;;;;;;;3.95;3.08;;;5.30;99.90;;;;;;6064790;23;20213;-84
2020/12/29 07:12:45;;;;;;;3.97;3.00;;;5.40;99.90;;;;;;6066075;23;20248;-83
2020/12/29 07:15:22;;;;;;;3.63;3.00;;;5.40;99.90;;;;;;6066791;23;20160;-84
2020/12/29 07:17:59;;;;;;;8.13;3.70;;;5.50;99.90;;;;;;6065677;23;20136;-83
2020/12/29 07:20:29;;;;;;;3.40;2.55;;;5.50;99.90;;;;;;6065334;23;20152;-83
2020/12/29 07:23:04;;;;;;;4.93;3.13;;;5.50;99.90;;;;;;6067539;23;20165;-83
2020/12/29 07:25:31;;;;;;;5.00;2.58;;;5.50;99.90;;;;;;6065342;23;20211;-83
2020/12/29 07:28:05;;;;;;;2.58;2.38;;;5.50;99.90;;;;;;6063698;23;20184;-84
2020/12/29 07:30:32;;;;;;;3.50;2.63;;;5.50;99.90;;;;;;6063430;23;20146;-82
2020/12/29 07:33:01;;;;;;;2.75;2.05;;;5.50;99.90;;;;;;6065700;23;20504;-80
2020/12/29 07:35:30;;;;;;;3.45;2.20;;;5.50;99.90;;;;;;6065373;23;20228;-82
2020/12/29 07:37:57;;;;;;;2.67;2.10;;;5.50;99.90;;;;;;6063165;23;20244;-83
2020/12/29 07:40:26;;;;;;;4.55;2.42;;;5.50;99.90;;;;;;6063813;23;20168;-82
2020/12/29 07:42:52;;;;;;;2.25;1.90;;;5.50;99.90;;;;;;6064222;23;20168;-82
2020/12/29 07:45:20;;;;;;;3.08;1.67;;;5.50;99.90;;;;;;6064160;23;20163;-82
2020/12/29 07:47:46;;;;;;;4.25;2.20;;;5.50;99.90;;;;;;6102373;23;20164;-82
2020/12/29 07:50:12;;;;;;;4.80;3.30;;;5.50;99.90;;;;;;6070801;23;20205;-82
2020/12/29 07:52:38;;;;;;;7.00;2.20;;;5.50;99.90;;;;;;6062848;23;20604;-82
2020/12/29 07:55:08;;;;;;;5.03;2.53;;;5.50;99.90;;;;;;6063185;23;20164;-81
2020/12/29 07:57:34;;;;;;;4.15;2.50;;;5.50;99.90;;;;;;6038637;23;20591;-81
2020/12/29 08:00:16;;;;;;;2.92;2.63;;;5.50;99.90;;;;;;6068394;23;20167;-82
2020/12/29 08:02:50;;;;;;;2.00;1.45;;;5.50;99.90;;;;;;6063087;23;20183;-82
2020/12/29 08:05:30;;;;;;;3.25;2.08;;;5.50;99.90;;;;;;6063283;23;20262;-82
2020/12/29 08:08:04;;;;;;;2.80;2.10;;;5.50;99.90;;;;;;6062538;23;20213;-82
2020/12/29 08:36:01;;;;;;;;;;;;;;;;;;;;;
2020/12/29 08:40:10;;;;;;;5.97;2.20;;;6.10;99.90;;;;;;6051204;23;20168;-82
2020/12/29 09:01:14;;;;;;;;;;;;;;;;;;;;;
2020/12/29 09:14:03;;;;;;;4.47;3.33;;;6.70;99.90;;;;;;5895638;24;20180;-82
2020/12/29 09:18:01;;;;;;;;;;;;;;;;;;;;;
2020/12/29 09:26:54;;;;;;;7.60;5.00;;;7.00;99.90;;;;;;5975154;24;20698;-82
2020/12/29 09:40:04;;;;;;;5.13;2.63;;;7.00;99.90;;;;;;5892139;24;20171;-82
2020/12/29 09:48:29;;;;;;;3.30;2.13;;;7.00;99.90;;;;;;5785065;24;20198;-81
2020/12/29 09:52:46;;;;;;;;;;;;;;;;;;;;;
2020/12/29 10:09:39;;;;;;;6.43;2.80;;;7.60;99.90;;;;;;6035461;23;20195;-83
2020/12/29 10:22:55;;;;;;;;;;;;;;;;;;;;;
2020/12/29 10:26:28;;;;;;;;;;;;;;;;;;;;;
2020/12/29 10:34:57;;;;;;;;;;;;;;;;;;;;;
2020/12/29 10:38:25;;;;;;;4.95;3.30;;;7.80;99.90;;;;;;5842827;24;20774;-84
2020/12/29 11:33:45;;;;;;;4.68;4.20;;;9.40;99.90;;;;;;5685661;25;20538;-83
2020/12/29 11:41:37;;;;;;;;;;;;;;;;;;;;;
2020/12/29 11:45:30;;;;;;;6.18;5.20;;;9.30;99.90;;;;;;5762117;24;20159;-84
2020/12/29 12:05:58;;;;;;;5.43;4.78;;;9.40;99.90;;;;;;5989118;23;20157;-86
2020/12/29 12:09:55;;;;;;;;;;;;;;;;;;;;;
2020/12/29 12:35:21;;;;;;;;;;;;;;;;;;;;;
2020/12/29 12:51:13;;;;;;;4.30;3.10;;;10.10;99.90;;;;;;5840507;24;20176;-84
2020/12/29 12:54:08;;;;;;;4.28;3.05;;;10.10;99.90;;;;;;5818272;24;20735;-84
2020/12/29 12:57:11;;;;;;;3.72;3.28;;;10.10;99.90;;;;;;5908169;23;20492;-86
2020/12/29 13:00:24;;;;;;;4.03;2.67;;;10.10;99.90;;;;;;5960260;23;20166;-86
2020/12/29 13:03:28;;;;;;;6.25;3.95;;;10.10;99.90;;;;;;6058208;23;20175;-85
2020/12/29 13:07:05;;;;;;;6.55;4.55;;;10.10;99.90;;;;;;6040429;23;20219;-85
2020/12/29 13:09:45;;;;;;;4.25;2.83;;;10.00;99.90;;;;;;6042916;23;20640;-84
2020/12/29 13:12:39;;;;;;;3.45;2.92;;;10.00;99.90;;;;;;6064270;23;20184;-86
2020/12/29 13:15:26;;;;;;;;;;;;;;;;;;;;;
2020/12/29 13:18:47;;;;;;;5.63;4.00;;;9.90;99.90;;;;;;6065370;23;20158;-84
2020/12/29 13:21:35;;;;;;;3.38;2.95;;;9.80;99.90;;;;;;6039051;23;20179;-85
2020/12/29 13:24:46;;;;;;;3.80;3.35;;;9.70;99.90;;;;;;6037628;23;20452;-85
2020/12/29 13:27:41;;;;;;;7.07;4.13;;;9.60;99.90;;;;;;6041161;23;20186;-85
2020/12/29 13:31:02;;;;;;;3.40;2.50;;;9.50;99.90;;;;;;6063730;23;20211;-84
2020/12/29 13:33:57;;;;;;;4.72;2.65;;;9.40;99.90;;;;;;6063983;23;20557;-84
2020/12/29 13:36:38;;;;;;;4.30;2.15;;;9.30;99.90;;;;;;6064226;23;20178;-85
2020/12/29 13:39:10;;;;;;;2.90;2.50;;;9.30;99.90;;;;;;6060683;23;20144;-83
2020/12/29 13:42:38;;;;;;;;;;;;;;;;;;;;;
2020/12/29 13:46:28;;;;;;;4.30;3.00;;;9.20;99.90;;;;;;6063391;23;21070;-83
2020/12/29 13:49:14;;;;;;;3.50;2.42;;;9.20;99.90;;;;;;6037746;23;20256;-85
2020/12/29 13:57:35;;;;;;;3.58;2.13;;;9.00;99.90;;;;;;5944169;24;20156;-83
2020/12/29 14:09:38;;;;;;;5.88;3.25;;;8.80;99.90;;;;;;5879718;24;20658;-85
2020/12/29 14:12:45;;;;;;;4.72;3.03;;;8.70;99.90;;;;;;5861431;24;20242;-83
2020/12/29 14:24:24;;;;;;;;;;;;;;;;;;;;;
2020/12/29 14:28:05;;;;;;;4.72;2.95;;;8.60;99.90;;;;;;5953252;24;20189;-82
2020/12/29 14:40:27;;;;;;;4.32;2.47;;;8.60;99.90;;;;;;5905819;24;20175;-83
2020/12/29 14:44:33;;;;;;;;;;;;;;;;;;;;;
2020/12/29 14:58:01;;;;;;;4.75;3.67;;;8.40;99.90;;;;;;6117959;23;20559;-85
2020/12/29 15:01:32;;;;;;;;;;;;;;;;;;;;;
2020/12/29 15:16:33;;;;;;;4.93;3.40;;;8.50;99.90;;;;;;5850942;24;20581;-87
2020/12/29 15:28:22;;;;;;;6.57;4.63;;;8.60;99.90;;;;;;6093472;23;20750;-85
2020/12/29 15:36:53;;;;;;;;;;;;;;;;;;;;;
2020/12/29 15:40:21;;;;;;;5.82;2.60;;;8.60;99.90;;;;;;6034836;23;20157;-85
2020/12/29 15:43:09;;;;;;;4.40;2.67;;;8.60;99.90;;;;;;6055409;23;20176;-85
2020/12/29 15:46:43;;;;;;;;;;;;;;;;;;;;;
2020/12/29 15:50:54;;;;;;;;;;;;;;;;;;;;;
2020/12/29 15:54:42;;;;;;;5.53;2.65;;;8.60;99.90;;;;;;6036489;23;20293;-85
2020/12/29 15:57:58;;;;;;;3.30;2.38;;;8.50;99.90;;;;;;6033627;23;20165;-84
2020/12/29 16:01:21;;;;;;;;;;;;;;;;;;;;;
2020/12/29 16:04:42;;;;;;;6.20;4.97;;;8.50;99.90;;;;;;6033226;23;20168;-83
2020/12/29 16:08:39;;;;;;;6.82;5.80;;;8.50;99.90;;;;;;6093075;23;20215;-84
2020/12/29 16:24:36;;;;;;;11.20;7.25;;;8.40;99.90;;;;;;5970536;23;20162;-83
2020/12/29 16:28:05;;;;;;;8.85;5.53;;;8.40;99.90;;;;;;6092672;23;20179;-84
2020/12/29 16:31:12;;;;;;;7.57;4.03;;;8.20;99.90;;;;;;6091047;23;20148;-83
2020/12/29 16:35:19;;;;;;;;;;;;;;;;;;;;;
2020/12/29 16:38:40;;;;;;;5.07;3.03;;;8.10;99.90;;;;;;6084973;23;20732;-81
2020/12/29 16:51:18;;;;;;;;;;;;;;;;;;;;;
2020/12/29 16:55:09;;;;;;;4.82;3.20;;;7.90;99.90;;;;;;5919271;24;20713;-82
2020/12/29 16:58:59;;;;;;;;;;;;;;;;;;;;;
2020/12/29 17:14:23;;;;;;;1.60;1.30;;;7.80;99.90;;;;;;6108288;23;20181;-77
2020/12/29 17:17:40;;;;;;;;;;;;;;;;;;;;;
2020/12/29 17:42:36;;;;;;;;;;;;;;;;;;;;;
2020/12/29 18:02:29;;;;;;;3.60;2.42;;;7.80;99.90;;;;;;6122396;23;20186;-79
2020/12/29 18:27:53;;;;;;;;;;;;;;;;;;;;;
2020/12/29 19:39:22;;;;;;;;;;;;;;;;;;;;;
2020/12/29 23:11:56;;;;;;;;;;;;;;;;;;;;;
2020/12/29 23:42:02;;;;;;;4.00;2.22;;;7.30;99.90;;;;;;6093980;23;20182;-78
